createdAt,value
2019-01-22T00:00:25.115Z,6.92
2019-01-22T00:02:55.648Z,7.25
2019-01-22T00:05:27.652Z,7.12
2019-01-22T00:07:58.535Z,7.83
2019-01-22T00:10:27.358Z,7.55
2019-01-22T00:12:56.722Z,7.53
2019-01-22T00:15:28.879Z,7.17
2019-01-22T00:17:57.697Z,7.55
2019-01-22T00:20:26.430Z,7.80
2019-01-22T00:23:02.805Z,7.15
2019-01-22T00:25:28.755Z,7.25
2019-01-22T00:27:58.906Z,7.37
2019-01-22T00:30:28.171Z,7.75
2019-01-22T00:32:57.036Z,7.55
2019-01-22T00:35:26.234Z,7.25
2019-01-22T00:37:55.161Z,7.33
2019-01-22T00:40:24.244Z,7.65
2019-01-22T00:42:53.544Z,7.47
2019-01-22T00:45:22.506Z,7.12
2019-01-22T00:47:51.373Z,7.03
2019-01-22T00:50:20.766Z,8.03
2019-01-22T00:52:49.584Z,7.50
2019-01-22T00:55:19.261Z,7.78
2019-01-22T00:57:49.585Z,6.97
2019-01-22T01:00:29.659Z,7.70
2019-01-22T01:03:01.966Z,7.55
2019-01-22T01:05:31.518Z,8.33
2019-01-22T01:08:16.987Z,8.20
2019-01-22T01:10:52.415Z,8.58
2019-01-22T01:13:26.526Z,8.20
2019-01-22T01:15:58.990Z,8.35
2019-01-22T01:18:33.459Z,8.75
2019-01-22T01:21:06.454Z,9.28
2019-01-22T01:23:50.012Z,8.08
2019-01-22T01:26:28.665Z,8.68
2019-01-22T01:29:01.703Z,8.23
2019-01-22T01:31:40.869Z,7.42
2019-01-22T01:34:21.188Z,8.30
2019-01-22T01:36:44.121Z,7.62
2019-01-22T01:39:12.839Z,9.03
2019-01-22T01:41:41.691Z,8.88
2019-01-22T01:44:10.581Z,9.23
2019-01-22T01:46:39.674Z,8.48
2019-01-22T01:49:11.176Z,9.25
2019-01-22T01:51:39.952Z,8.48
2019-01-22T01:54:08.796Z,9.58
2019-01-22T01:56:37.533Z,9.58
2019-01-22T01:59:07.173Z,9.40
2019-01-22T02:01:35.988Z,10.25
2019-01-22T02:04:04.721Z,9.90
2019-01-22T02:06:33.616Z,9.55
2019-01-22T02:09:02.401Z,9.80
2019-01-22T02:11:31.235Z,10.75
2019-01-22T02:14:00.315Z,11.48
2019-01-22T02:16:34.926Z,10.48
2019-01-22T02:19:09.350Z,11.30
2019-01-22T02:22:08.403Z,10.65
2019-01-22T02:24:42.791Z,10.95
2019-01-22T02:27:29.103Z,10.30
2019-01-22T02:30:09.316Z,10.80
2019-01-22T02:32:42.829Z,11.53
2019-01-22T02:35:17.151Z,12.85
2019-01-22T02:37:58.498Z,12.75
2019-01-22T02:40:39.248Z,13.18
2019-01-22T02:43:36.630Z,12.00
2019-01-22T02:46:28.548Z,13.40
2019-01-22T02:49:18.264Z,13.72
2019-01-22T02:51:50.078Z,13.80
2019-01-22T02:54:19.505Z,14.43
2019-01-22T02:57:10.388Z,15.13
2019-01-22T03:00:01.838Z,13.70
2019-01-22T03:03:01.801Z,15.18
2019-01-22T03:05:37.045Z,15.40
2019-01-22T03:08:24.938Z,16.30
2019-01-22T03:11:01.864Z,15.35
2019-01-22T03:13:43.639Z,13.93
2019-01-22T03:16:51.306Z,15.75
2019-01-22T03:19:34.975Z,14.60
2019-01-22T03:22:16.281Z,14.78
2019-01-22T03:24:54.108Z,14.90
2019-01-22T03:27:45.638Z,13.90
2019-01-22T03:30:23.697Z,14.47
2019-01-22T03:32:58.561Z,14.78
2019-01-22T03:35:56.543Z,14.30
2019-01-22T03:38:37.059Z,13.45
2019-01-22T03:41:09.780Z,14.05
2019-01-22T03:43:47.393Z,15.63
2019-01-22T03:46:28.063Z,15.10
2019-01-22T03:48:59.841Z,15.70
2019-01-22T03:51:31.635Z,14.98
2019-01-22T03:54:06.335Z,14.07
2019-01-22T03:57:11.427Z,14.80
2019-01-22T03:59:40.221Z,14.90
2019-01-22T04:02:09.435Z,15.13
2019-01-22T04:04:38.389Z,14.73
2019-01-22T04:07:07.182Z,15.32
2019-01-22T04:09:36.626Z,14.68
2019-01-22T04:12:05.428Z,15.25
2019-01-22T04:14:34.376Z,14.30
2019-01-22T04:17:03.248Z,15.25
2019-01-22T04:19:31.973Z,15.25
2019-01-22T04:22:00.788Z,15.68
2019-01-22T04:24:53.793Z,14.95
2019-01-22T04:27:31.425Z,15.60
2019-01-22T04:30:14.904Z,15.55
2019-01-22T04:32:46.651Z,16.57
2019-01-22T04:35:33.545Z,16.20
2019-01-22T04:38:07.156Z,14.93
2019-01-22T04:40:50.950Z,17.45
2019-01-22T04:43:40.656Z,16.80
2019-01-22T04:46:12.384Z,15.58
2019-01-22T04:48:57.115Z,17.95
2019-01-22T04:51:43.041Z,18.12
2019-01-22T04:54:27.484Z,17.07
2019-01-22T04:57:14.021Z,17.90
2019-01-22T05:00:13.474Z,16.85
2019-01-22T05:02:47.776Z,17.27
2019-01-22T05:05:44.219Z,17.73
2019-01-22T05:08:35.808Z,16.62
2019-01-22T05:11:23.118Z,17.48
2019-01-22T05:14:00.850Z,17.10
2019-01-22T05:16:54.779Z,16.62
2019-01-22T05:19:35.890Z,18.52
2019-01-22T05:22:10.379Z,17.98
2019-01-22T05:24:42.141Z,18.85
2019-01-22T05:27:38.220Z,19.00
2019-01-22T05:30:18.701Z,16.85
2019-01-22T05:33:25.299Z,18.27
2019-01-22T05:36:14.969Z,18.20
2019-01-22T05:39:08.689Z,16.93
2019-01-22T05:41:43.055Z,16.65
2019-01-22T05:44:43.372Z,16.50
2019-01-22T05:47:27.085Z,17.20
2019-01-22T05:50:09.679Z,17.17
2019-01-22T05:53:07.187Z,17.15
2019-01-22T05:55:54.795Z,16.80
2019-01-22T05:58:47.808Z,18.27
2019-01-22T06:01:22.744Z,17.15
2019-01-22T06:04:00.615Z,17.90
2019-01-22T06:06:32.979Z,17.52
2019-01-22T06:09:06.249Z,15.72
2019-01-22T06:15:26.972Z,16.67
2019-01-22T06:18:03.166Z,15.83
2019-01-22T06:21:02.323Z,17.05
2019-01-22T06:23:58.309Z,16.35
2019-01-22T06:26:45.778Z,16.48
2019-01-22T06:29:56.093Z,13.95
2019-01-22T06:32:43.362Z,14.98
2019-01-22T06:35:22.167Z,21.10
2019-01-22T06:38:33.319Z,18.10
2019-01-22T06:41:14.572Z,19.02
2019-01-22T06:43:57.988Z,17.75
2019-01-22T06:46:42.033Z,16.95
2019-01-22T06:49:25.019Z,16.00
2019-01-22T06:52:10.474Z,17.77
2019-01-22T06:54:56.330Z,17.55
2019-01-22T06:57:46.953Z,18.35
2019-01-22T07:00:41.674Z,14.93
2019-01-22T07:03:45.261Z,24.55
2019-01-22T07:06:34.354Z,16.85
2019-01-22T07:09:27.128Z,18.82
2019-01-22T07:12:16.286Z,17.37
2019-01-22T07:15:04.940Z,15.50
2019-01-22T07:17:44.502Z,18.10
2019-01-22T07:20:42.877Z,16.95
2019-01-22T07:23:21.384Z,17.32
2019-01-22T07:26:10.954Z,16.73
2019-01-22T07:28:50.919Z,17.73
2019-01-22T07:31:28.869Z,18.05
2019-01-22T07:34:18.591Z,20.92
2019-01-22T07:37:11.301Z,16.67
2019-01-22T07:39:55.831Z,18.20
2019-01-22T07:42:33.929Z,16.42
2019-01-22T07:45:17.499Z,21.55
2019-01-22T07:47:55.662Z,18.07
2019-01-22T07:50:38.181Z,18.12
2019-01-22T07:53:26.792Z,17.20
2019-01-22T07:56:24.485Z,17.70
2019-01-22T07:58:59.585Z,20.00
2019-01-22T08:01:32.309Z,18.60
2019-01-22T08:04:17.136Z,16.55
2019-01-22T08:07:15.379Z,17.90
2019-01-22T08:10:13.955Z,18.42
2019-01-22T08:13:15.409Z,18.82
2019-01-22T08:15:53.567Z,17.00
2019-01-22T08:18:46.452Z,18.65
2019-01-22T08:21:33.723Z,17.80
2019-01-22T08:24:14.418Z,17.95
2019-01-22T08:27:02.734Z,19.95
2019-01-22T08:29:45.058Z,18.23
2019-01-22T08:32:45.513Z,18.82
2019-01-22T08:35:28.409Z,17.92
2019-01-22T08:38:13.240Z,18.23
2019-01-22T08:41:06.697Z,18.67
2019-01-22T08:44:07.342Z,19.30
2019-01-22T08:46:45.138Z,21.23
2019-01-22T08:49:18.625Z,18.73
2019-01-22T08:51:53.547Z,22.95
2019-01-22T08:54:38.368Z,20.02
2019-01-22T08:57:16.889Z,19.60
2019-01-22T09:00:17.076Z,19.57
2019-01-22T09:03:02.737Z,22.87
2019-01-22T09:05:38.657Z,17.90
2019-01-22T09:08:14.243Z,16.87
2019-01-22T09:10:57.813Z,18.17
2019-01-22T09:14:02.092Z,18.85
2019-01-22T09:16:53.620Z,17.73
2019-01-22T09:19:43.863Z,17.98
2019-01-22T09:22:26.522Z,18.27
2019-01-22T09:25:06.654Z,18.12
2019-01-22T09:27:48.421Z,24.87
2019-01-22T09:30:33.334Z,21.40
2019-01-22T09:33:13.027Z,20.00
2019-01-22T09:36:04.868Z,19.73
2019-01-22T09:38:40.976Z,19.20
2019-01-22T09:41:11.695Z,24.63
2019-01-22T09:43:44.939Z,21.55
2019-01-22T09:46:18.161Z,20.00
2019-01-22T09:48:51.077Z,20.92
2019-01-22T09:51:24.677Z,20.30
2019-01-22T09:53:53.783Z,20.08
2019-01-22T09:56:23.892Z,19.87
2019-01-22T09:58:58.123Z,20.45
2019-01-22T10:01:30.342Z,20.45
2019-01-22T10:04:03.497Z,22.45
2019-01-22T10:06:38.943Z,21.00
2019-01-22T10:09:13.501Z,20.70
2019-01-22T10:11:45.707Z,19.80
2019-01-22T10:14:23.458Z,20.47
2019-01-22T10:16:54.558Z,18.82
2019-01-22T10:19:28.258Z,19.85
2019-01-22T10:22:02.968Z,20.05
2019-01-22T10:24:35.951Z,19.55
2019-01-22T10:27:14.881Z,21.12
2019-01-22T10:29:45.604Z,19.65
2019-01-22T10:32:15.984Z,20.10
2019-01-22T10:34:46.776Z,18.92
2019-01-22T10:37:17.325Z,19.23
2019-01-22T10:39:48.973Z,18.15
2019-01-22T10:42:25.888Z,19.15
2019-01-22T10:44:56.884Z,18.57
2019-01-22T10:47:32.208Z,16.77
2019-01-22T10:50:04.457Z,18.48
2019-01-22T10:52:38.880Z,23.80
2019-01-22T10:55:16.673Z,19.40
2019-01-22T10:58:01.790Z,19.20
2019-01-22T11:00:33.990Z,18.23
2019-01-22T11:03:06.897Z,18.25
2019-01-22T11:05:39.056Z,17.17
2019-01-22T11:08:10.304Z,19.98
2019-01-22T11:10:55.465Z,18.40
2019-01-22T11:13:28.961Z,24.07
2019-01-22T11:16:00.001Z,19.35
2019-01-22T11:18:40.127Z,18.90
2019-01-22T11:21:14.684Z,20.32
2019-01-22T11:23:45.626Z,20.17
2019-01-22T11:26:24.052Z,19.55
2019-01-22T11:29:46.227Z,21.17
2019-01-22T11:32:19.583Z,19.20
2019-01-22T11:35:20.113Z,19.42
2019-01-22T11:38:00.678Z,19.35
2019-01-22T11:41:24.113Z,22.87
2019-01-22T11:44:01.909Z,19.75
2019-01-22T11:47:18.102Z,20.00
2019-01-22T11:49:52.305Z,21.55
2019-01-22T11:53:04.699Z,20.62
2019-01-22T11:55:33.339Z,21.62
2019-01-22T11:58:53.118Z,21.02
2019-01-22T12:01:39.172Z,20.40
2019-01-22T12:05:01.979Z,20.95
2019-01-22T12:07:33.511Z,19.17
2019-01-22T12:10:36.620Z,21.30
2019-01-22T12:13:19.177Z,18.90
2019-01-22T12:16:45.429Z,18.90
2019-01-22T12:19:28.795Z,20.68
2019-01-22T12:28:53.717Z,17.45
2019-01-22T12:31:22.820Z,18.23
2019-01-22T12:34:28.231Z,17.37
2019-01-22T12:36:57.184Z,17.32
2019-01-22T12:40:26.079Z,15.53
2019-01-22T12:42:56.102Z,16.32
2019-01-22T12:45:51.901Z,16.27
2019-01-22T12:48:28.657Z,17.20
2019-01-22T12:51:57.690Z,16.55
2019-01-22T12:54:28.738Z,17.62
2019-01-22T12:57:27.910Z,16.97
2019-01-22T12:59:59.534Z,17.85
2019-01-22T13:03:13.299Z,20.62
2019-01-22T13:05:52.059Z,18.92
2019-01-22T13:09:12.156Z,17.00
2019-01-22T13:11:46.979Z,17.07
2019-01-22T13:15:00.999Z,16.77
2019-01-22T13:17:30.665Z,17.75
2019-01-22T13:20:51.849Z,18.07
2019-01-22T13:23:21.160Z,18.75
2019-01-22T13:26:28.887Z,17.98
2019-01-22T13:29:03.866Z,18.02
2019-01-22T13:31:47.888Z,18.87
2019-01-22T13:34:21.895Z,17.57
2019-01-22T13:37:27.212Z,17.23
2019-01-22T13:39:59.436Z,24.32
2019-01-22T13:43:02.611Z,18.98
2019-01-22T13:45:49.416Z,18.90
2019-01-22T13:49:13.639Z,19.50
2019-01-22T13:51:43.956Z,17.52
2019-01-22T13:55:03.329Z,18.10
2019-01-22T13:57:50.384Z,22.60
2019-01-22T14:01:11.930Z,20.35
2019-01-22T14:03:45.794Z,17.02
2019-01-22T14:13:23.838Z,16.35
2019-01-22T14:16:20.578Z,18.00
2019-01-22T14:18:55.780Z,18.65
2019-01-22T14:21:28.712Z,17.98
2019-01-22T14:24:00.072Z,16.62
2019-01-22T14:27:27.156Z,18.55
2019-01-22T14:30:13.933Z,17.52
2019-01-22T14:33:12.505Z,18.25
2019-01-22T14:35:42.330Z,18.07
2019-01-22T14:38:50.559Z,17.77
2019-01-22T14:41:20.414Z,16.75
2019-01-22T14:44:29.891Z,16.60
2019-01-22T14:47:06.328Z,15.80
2019-01-22T14:50:14.397Z,17.50
2019-01-22T14:52:50.544Z,18.15
2019-01-22T14:55:44.088Z,18.20
2019-01-22T14:58:10.854Z,18.00
2019-01-22T15:07:43.687Z,16.05
2019-01-22T15:10:17.271Z,16.87
2019-01-22T15:13:30.230Z,17.02
2019-01-22T15:16:16.649Z,16.45
2019-01-22T15:19:32.922Z,15.98
2019-01-22T15:22:18.320Z,18.30
2019-01-22T15:25:26.368Z,15.93
2019-01-22T15:28:09.016Z,17.73
2019-01-22T15:31:37.402Z,16.73
2019-01-22T15:34:06.297Z,16.20
2019-01-22T15:37:23.529Z,15.18
2019-01-22T15:39:56.375Z,16.17
2019-01-22T15:43:01.410Z,15.55
2019-01-22T15:45:35.162Z,14.63
2019-01-22T15:48:32.185Z,15.72
2019-01-22T15:51:07.891Z,15.48
2019-01-22T15:54:11.347Z,15.10
2019-01-22T15:56:48.698Z,14.80
2019-01-22T16:00:12.160Z,15.98
2019-01-22T16:02:46.841Z,15.40
2019-01-22T16:06:00.064Z,18.00
2019-01-22T16:08:36.968Z,15.88
2019-01-22T16:17:58.830Z,15.68
2019-01-22T16:20:33.234Z,17.00
2019-01-22T16:24:01.504Z,16.30
2019-01-22T16:26:32.607Z,18.42
2019-01-22T16:29:51.941Z,15.72
2019-01-22T16:32:24.600Z,16.02
2019-01-22T16:35:28.366Z,14.50
2019-01-22T16:38:00.346Z,18.95
2019-01-22T16:41:14.097Z,16.10
2019-01-22T16:43:47.867Z,15.18
2019-01-22T16:46:53.243Z,14.93
2019-01-22T16:49:26.821Z,15.50
2019-01-22T16:52:23.533Z,15.80
2019-01-22T16:54:57.000Z,17.12
2019-01-22T16:58:21.779Z,15.28
2019-01-22T17:00:55.550Z,16.77
2019-01-22T17:03:53.588Z,14.83
2019-01-22T17:06:16.920Z,17.98
2019-01-22T17:09:37.257Z,17.00
2019-01-22T17:12:11.133Z,17.12
2019-01-22T17:15:13.869Z,15.95
2019-01-22T17:18:01.114Z,16.10
2019-01-22T17:20:59.354Z,17.17
2019-01-22T17:23:30.536Z,16.07
2019-01-22T17:26:01.051Z,17.15
2019-01-22T17:28:37.306Z,17.10
2019-01-22T17:31:40.340Z,16.62
2019-01-22T17:34:10.953Z,16.17
2019-01-22T17:37:35.323Z,16.25
2019-01-22T17:40:19.106Z,16.75
2019-01-22T17:43:28.790Z,17.20
2019-01-22T17:46:14.704Z,16.55
2019-01-22T17:49:05.211Z,15.72
2019-01-22T17:51:36.464Z,17.15
2019-01-22T17:54:43.367Z,16.12
2019-01-22T17:57:15.478Z,16.73
2019-01-22T18:00:30.757Z,17.62
2019-01-22T18:03:10.831Z,16.37
2019-01-22T18:06:16.077Z,15.85
2019-01-22T18:08:47.325Z,18.00
2019-01-22T18:11:22.979Z,16.73
2019-01-22T18:14:00.682Z,18.52
2019-01-22T18:19:23.791Z,17.45
2019-01-22T18:24:49.680Z,17.17
2019-01-22T18:27:20.734Z,16.17
2019-01-22T18:30:43.339Z,16.62
2019-01-22T18:33:15.598Z,16.55
2019-01-22T18:35:49.671Z,15.72
2019-01-22T18:38:24.595Z,16.93
2019-01-22T18:41:00.025Z,17.42
2019-01-22T18:43:34.367Z,16.00
2019-01-22T18:46:06.516Z,16.97
2019-01-22T18:48:44.769Z,16.32
2019-01-22T18:54:29.464Z,16.07
2019-01-22T18:57:02.487Z,15.72
2019-01-22T19:00:32.635Z,16.37
2019-01-22T19:03:11.928Z,15.90
